Time;durP1;ratioP1;P1;durP2;ratioP2;P2;SDS_P1;SDS_P2;PMS_P1;PMS_P2;Temp;Humidity;BMP_temperature;BMP_pressure;BME280_temperature;BME280_humidity;BME280_pressure;Samples;Min_cycle;Max_cycle;Signal;HPM_P1;HPM_P2
2022/09/05 00:00:16;;;;;;;3.42;2.20;;;20.90;54.00;;;;;;4990373;28;20511;-49
2022/09/05 00:03:07;;;;;;;3.30;2.30;;;20.90;54.50;;;;;;4994569;28;20104;-51
2022/09/05 00:05:58;;;;;;;5.72;2.60;;;20.90;54.60;;;;;;4991436;28;20117;-47
2022/09/05 00:09:00;;;;;;;2.35;2.17;;;20.90;54.70;;;;;;4992497;28;20053;-50
2022/09/05 00:11:52;;;;;;;4.97;2.78;;;20.80;54.80;;;;;;4999100;28;20042;-50
2022/09/05 00:14:24;;;;;;;2.67;2.28;;;20.80;54.50;;;;;;4992111;28;20038;-49
2022/09/05 00:17:29;;;;;;;2.67;2.17;;;20.90;54.30;;;;;;4990906;28;20129;-50
2022/09/05 00:20:31;;;;;;;3.20;2.42;;;20.80;55.00;;;;;;4997569;28;20042;-48
2022/09/05 00:23:53;;;;;;;4.82;2.50;;;20.80;54.50;;;;;;4993914;28;20134;-49
2022/09/05 00:27:03;;;;;;;3.03;2.63;;;20.80;54.50;;;;;;4974375;28;20157;-48
2022/09/05 00:30:01;;;;;;;2.85;2.60;;;20.80;54.50;;;;;;4979345;28;20039;-51
2022/09/05 00:33:21;;;;;;;2.70;2.47;;;20.80;54.10;;;;;;4997936;28;20038;-50
2022/09/05 00:36:19;;;;;;;3.85;2.47;;;20.70;53.90;;;;;;4978900;28;20077;-49
2022/09/05 00:39:21;;;;;;;2.63;2.42;;;20.70;53.90;;;;;;4971419;28;20062;-46
2022/09/05 00:41:51;;;;;;;3.38;2.80;;;20.60;54.00;;;;;;4994552;28;20125;-48
2022/09/05 00:44:27;;;;;;;2.85;2.58;;;20.60;53.60;;;;;;4990776;28;20042;-49
2022/09/05 00:47:13;;;;;;;3.17;2.47;;;20.50;53.90;;;;;;4985680;28;20076;-50
2022/09/05 00:49:54;;;;;;;5.95;3.33;;;20.50;54.50;;;;;;4999617;28;20495;-51
2022/09/05 00:52:40;;;;;;;2.75;2.47;;;20.40;54.60;;;;;;4973031;28;20051;-48
2022/09/05 00:55:19;;;;;;;3.50;2.10;;;20.40;54.10;;;;;;4989470;28;20089;-51
2022/09/05 00:58:08;;;;;;;2.72;2.05;;;20.40;54.70;;;;;;4995448;28;20038;-49
2022/09/05 01:00:55;;;;;;;2.38;2.15;;;20.30;55.00;;;;;;4991646;28;20054;-48
2022/09/05 01:03:34;;;;;;;4.63;2.63;;;20.30;55.20;;;;;;4991711;28;20088;-48
2022/09/05 01:06:24;;;;;;;4.40;2.25;;;20.30;55.30;;;;;;5001039;28;20034;-49
2022/09/05 01:08:59;;;;;;;3.00;2.50;;;20.20;55.00;;;;;;5008007;28;20453;-48
2022/09/05 01:11:41;;;;;;;3.10;2.33;;;20.20;55.00;;;;;;5002891;28;20046;-48
2022/09/05 01:14:26;;;;;;;2.75;2.55;;;20.20;55.20;;;;;;4998931;28;20527;-48
2022/09/05 01:17:24;;;;;;;4.15;2.42;;;20.10;55.40;;;;;;4995949;28;20038;-50
2022/09/05 01:20:26;;;;;;;2.35;2.15;;;20.10;55.30;;;;;;5003064;28;20049;-49
2022/09/05 01:23:06;;;;;;;2.38;2.15;;;20.10;55.30;;;;;;4991669;28;20109;-50
2022/09/05 01:25:57;;;;;;;3.42;2.70;;;20.00;55.10;;;;;;4993690;28;20674;-47
2022/09/05 01:28:53;;;;;;;2.40;2.20;;;20.00;55.10;;;;;;4988113;28;20053;-49
2022/09/05 01:32:19;;;;;;;2.25;2.00;;;19.90;55.40;;;;;;4985028;28;20065;-48
2022/09/05 01:35:21;;;;;;;3.92;2.75;;;19.90;55.30;;;;;;4993457;28;20691;-49
2022/09/05 01:38:10;;;;;;;4.05;2.80;;;19.90;55.50;;;;;;5003393;28;20074;-50
2022/09/05 01:40:58;;;;;;;3.30;2.60;;;19.80;55.40;;;;;;5001358;28;20105;-49
2022/09/05 01:44:08;;;;;;;3.72;2.50;;;19.80;55.50;;;;;;4998050;28;20138;-48
2022/09/05 01:46:56;;;;;;;4.15;2.88;;;19.70;55.60;;;;;;4997909;28;20457;-49
2022/09/05 01:49:53;;;;;;;3.60;2.85;;;19.70;55.80;;;;;;5010810;28;20034;-47
2022/09/05 01:52:49;;;;;;;4.88;2.85;;;19.70;55.90;;;;;;4997166;28;20035;-50
2022/09/05 01:56:04;;;;;;;4.22;2.83;;;19.60;56.10;;;;;;4991502;28;20380;-47
2022/09/05 01:58:56;;;;;;;2.47;2.28;;;19.60;56.00;;;;;;4985543;28;20052;-47
2022/09/05 02:01:27;;;;;;;3.25;2.83;;;19.50;55.90;;;;;;4991393;28;20050;-49
2022/09/05 02:04:23;;;;;;;3.92;2.78;;;19.50;55.50;;;;;;4991520;28;20093;-51
2022/09/05 02:07:16;;;;;;;2.53;2.33;;;19.50;56.20;;;;;;5001540;28;20052;-49
2022/09/05 02:10:34;;;;;;;3.28;2.40;;;19.50;56.20;;;;;;4989956;28;20038;-49
2022/09/05 02:13:28;;;;;;;2.28;2.10;;;19.50;56.20;;;;;;5000504;28;20038;-47
2022/09/05 02:16:10;;;;;;;2.75;2.53;;;19.40;56.30;;;;;;5004900;28;20085;-49
2022/09/05 02:19:13;;;;;;;2.33;2.13;;;19.40;56.50;;;;;;4974579;28;20046;-47
2022/09/05 02:21:53;;;;;;;2.40;2.05;;;19.40;56.60;;;;;;4998351;28;20071;-51
2022/09/05 02:24:32;;;;;;;;;;;19.40;56.50;;;;;;4971488;28;20543;-48
2022/09/05 02:27:21;;;;;;;2.20;2.00;;;19.40;55.50;;;;;;4976503;28;20341;-48
2022/09/05 02:30:23;;;;;;;2.70;2.40;;;19.30;56.60;;;;;;4999280;28;20138;-51
2022/09/05 02:32:56;;;;;;;2.63;2.42;;;19.30;56.90;;;;;;5002481;28;20463;-50
2022/09/05 02:35:44;;;;;;;3.42;2.72;;;19.30;56.80;;;;;;5007638;28;20062;-49
2022/09/05 02:38:21;;;;;;;3.47;3.03;;;19.30;57.70;;;;;;4982587;28;20042;-51
2022/09/05 02:41:28;;;;;;;2.78;2.50;;;19.30;57.50;;;;;;4996431;28;20624;-50
2022/09/05 02:44:49;;;;;;;3.30;2.55;;;19.30;58.00;;;;;;4990206;28;20054;-49
2022/09/05 02:47:58;;;;;;;4.20;2.75;;;19.30;58.10;;;;;;4991438;28;20057;-48
2022/09/05 02:51:12;;;;;;;3.60;2.65;;;19.30;57.50;;;;;;4993319;28;20049;-51
2022/09/05 02:54:09;;;;;;;3.10;2.30;;;19.30;58.10;;;;;;4972489;28;20050;-47
2022/09/05 02:57:18;;;;;;;2.83;2.63;;;19.30;57.70;;;;;;4995044;28;20122;-49
2022/09/05 03:00:13;;;;;;;4.10;2.90;;;19.30;58.10;;;;;;4989840;28;20688;-49
2022/09/05 03:03:10;;;;;;;3.08;2.50;;;19.30;57.50;;;;;;4998227;28;20101;-48
2022/09/05 03:05:58;;;;;;;3.13;2.63;;;19.30;57.90;;;;;;4990953;28;20052;-49
2022/09/05 03:09:02;;;;;;;3.25;2.42;;;19.30;58.10;;;;;;4988198;28;20042;-49
2022/09/05 03:12:11;;;;;;;5.57;2.83;;;19.30;58.10;;;;;;4999838;28;20054;-50
2022/09/05 03:15:04;;;;;;;3.95;2.88;;;19.30;58.10;;;;;;4988207;28;20463;-48
2022/09/05 03:18:11;;;;;;;2.65;2.45;;;19.30;57.60;;;;;;5003073;28;20042;-52
2022/09/05 03:21:10;;;;;;;2.72;2.53;;;19.30;57.80;;;;;;5000431;28;20054;-50
2022/09/05 03:23:56;;;;;;;2.90;2.65;;;19.30;58.30;;;;;;4989023;28;20097;-50
2022/09/05 03:27:11;;;;;;;3.42;2.67;;;19.20;58.10;;;;;;4993766;28;20045;-50
2022/09/05 03:30:07;;;;;;;2.88;2.63;;;19.20;58.20;;;;;;4937442;29;20091;-49
2022/09/05 03:33:06;;;;;;;2.92;2.72;;;19.20;58.20;;;;;;4997202;28;20116;-49
2022/09/05 03:36:03;;;;;;;3.53;2.78;;;19.20;57.60;;;;;;5004947;28;20613;-47
2022/09/05 03:39:10;;;;;;;3.33;3.03;;;19.10;57.90;;;;;;4994346;28;20038;-49
2022/09/05 03:41:57;;;;;;;4.22;2.85;;;19.10;57.80;;;;;;4997539;28;20034;-49
2022/09/05 03:44:58;;;;;;;4.07;2.47;;;19.10;57.80;;;;;;4997437;28;20030;-49
2022/09/05 03:47:44;;;;;;;2.65;2.45;;;19.10;57.70;;;;;;4990202;28;20049;-50
2022/09/05 03:50:49;;;;;;;4.07;3.05;;;19.00;57.70;;;;;;4989089;28;20522;-48
2022/09/05 03:53:51;;;;;;;2.42;2.22;;;18.90;58.00;;;;;;4988439;28;20066;-48
2022/09/05 03:56:47;;;;;;;2.70;2.50;;;18.90;57.90;;;;;;4991710;28;20548;-49
2022/09/05 04:00:13;;;;;;;3.58;2.88;;;18.90;57.50;;;;;;4983536;28;20471;-47
2022/09/05 04:03:10;;;;;;;3.92;2.75;;;18.80;58.10;;;;;;4987489;28;20050;-49
2022/09/05 04:06:26;;;;;;;5.13;2.97;;;18.80;58.20;;;;;;4994467;28;20530;-47
2022/09/05 04:09:19;;;;;;;3.80;2.40;;;18.70;58.10;;;;;;4999404;28;20050;-52
2022/09/05 04:12:24;;;;;;;6.90;2.72;;;18.70;57.80;;;;;;4993288;28;20034;-49
2022/09/05 04:15:22;;;;;;;3.10;2.38;;;18.70;58.30;;;;;;5000942;28;20450;-49
2022/09/05 04:18:00;;;;;;;3.60;2.78;;;18.70;58.50;;;;;;4995020;28;20038;-46
2022/09/05 04:21:07;;;;;;;3.88;3.13;;;18.60;58.10;;;;;;4996002;28;20046;-48
2022/09/05 04:23:59;;;;;;;4.25;2.80;;;18.60;58.60;;;;;;4971301;28;20835;-47
2022/09/05 04:27:15;;;;;;;2.83;2.63;;;18.60;58.80;;;;;;4995972;28;20053;-51
2022/09/05 04:30:02;;;;;;;3.33;3.03;;;18.60;58.70;;;;;;4881160;29;20045;-51
2022/09/05 04:33:09;;;;;;;4.22;2.47;;;18.60;59.00;;;;;;4886020;29;20058;-46
2022/09/05 04:35:54;;;;;;;3.30;2.88;;;18.60;58.70;;;;;;4961668;28;20098;-47
2022/09/05 04:38:41;;;;;;;5.28;2.80;;;18.50;58.80;;;;;;5001882;28;20459;-52
2022/09/05 04:41:19;;;;;;;4.68;2.80;;;18.50;59.30;;;;;;4999270;28;20105;-49
2022/09/05 04:44:29;;;;;;;3.17;2.90;;;18.50;58.70;;;;;;5002354;28;20089;-52
2022/09/05 04:47:03;;;;;;;2.90;2.40;;;18.50;59.30;;;;;;5009839;28;20046;-50
2022/09/05 04:49:38;;;;;;;2.97;2.78;;;18.50;58.90;;;;;;4999972;28;20527;-52
2022/09/05 04:52:12;;;;;;;3.47;2.55;;;18.40;58.80;;;;;;4989329;28;20427;-52
2022/09/05 04:55:07;;;;;;;3.05;2.78;;;18.50;59.10;;;;;;4996183;28;20415;-48
2022/09/05 04:57:43;;;;;;;2.55;2.35;;;18.40;59.10;;;;;;4986125;28;20104;-49
2022/09/05 05:00:24;;;;;;;3.92;2.60;;;18.40;59.20;;;;;;4991938;28;20080;-50
2022/09/05 05:03:23;;;;;;;2.67;2.47;;;18.40;59.30;;;;;;5006188;28;20056;-51
2022/09/05 05:06:24;;;;;;;4.40;2.60;;;18.40;58.90;;;;;;4983665;28;20046;-52
2022/09/05 05:09:21;;;;;;;2.90;2.70;;;18.30;58.50;;;;;;4993891;28;20058;-50
2022/09/05 05:11:59;;;;;;;3.17;2.85;;;18.30;59.00;;;;;;5004009;28;20462;-51
2022/09/05 05:15:03;;;;;;;3.22;2.80;;;18.30;58.90;;;;;;4989916;28;20526;-52
2022/09/05 05:18:10;;;;;;;3.53;2.45;;;18.20;58.90;;;;;;4992361;28;20443;-52
2022/09/05 05:21:08;;;;;;;4.82;2.53;;;18.30;58.80;;;;;;4993710;28;20128;-51
2022/09/05 05:23:44;;;;;;;5.60;2.47;;;18.20;58.60;;;;;;5000187;28;20099;-51
2022/09/05 05:26:22;;;;;;;4.28;3.05;;;18.20;59.10;;;;;;5001480;28;20057;-48
2022/09/05 05:29:06;;;;;;;5.30;3.00;;;18.20;59.50;;;;;;4995071;28;20042;-51
2022/09/05 05:31:37;;;;;;;3.20;2.90;;;18.20;59.80;;;;;;4993378;28;20045;-47
2022/09/05 05:34:22;;;;;;;4.70;3.22;;;18.20;59.20;;;;;;4974281;28;20430;-50
2022/09/05 05:37:13;;;;;;;6.47;3.45;;;18.20;60.00;;;;;;4996800;28;20376;-52
2022/09/05 05:39:49;;;;;;;6.35;3.10;;;18.20;59.90;;;;;;4995959;28;20077;-52
2022/09/05 05:42:27;;;;;;;5.78;2.90;;;18.20;60.00;;;;;;4993754;28;20053;-49
2022/09/05 05:44:58;;;;;;;6.65;3.63;;;18.20;60.20;;;;;;4994412;28;20043;-50
2022/09/05 05:47:43;;;;;;;4.50;3.25;;;18.20;60.00;;;;;;4993603;28;20598;-49
2022/09/05 05:50:33;;;;;;;6.50;3.58;;;18.20;60.80;;;;;;5003628;28;20089;-52
2022/09/05 05:53:03;;;;;;;5.78;4.13;;;18.20;60.40;;;;;;4990069;28;20459;-52
2022/09/05 05:55:48;;;;;;;5.80;3.55;;;18.20;60.20;;;;;;4999585;28;20528;-51
2022/09/05 05:58:59;;;;;;;4.72;3.25;;;18.30;60.40;;;;;;4982790;28;20660;-50
2022/09/05 06:01:50;;;;;;;6.15;3.47;;;18.30;61.40;;;;;;4971560;28;20504;-52
2022/09/05 06:04:57;;;;;;;4.57;3.38;;;18.30;61.40;;;;;;4992541;28;20046;-48
2022/09/05 06:07:52;;;;;;;4.05;3.08;;;18.40;61.90;;;;;;4988226;28;20063;-52
2022/09/05 06:10:56;;;;;;;5.07;3.28;;;18.40;61.90;;;;;;4997973;28;20409;-47
2022/09/05 06:14:07;;;;;;;4.60;3.28;;;18.40;61.60;;;;;;4990430;28;20125;-50
2022/09/05 06:17:31;;;;;;;7.75;3.20;;;18.50;62.20;;;;;;4986649;28;20137;-48
2022/09/05 06:20:26;;;;;;;6.25;3.22;;;18.60;62.60;;;;;;5007269;28;20564;-49
2022/09/05 06:23:32;;;;;;;4.70;3.58;;;18.60;62.80;;;;;;4973148;28;20050;-48
2022/09/05 06:26:30;;;;;;;3.50;3.17;;;18.70;62.70;;;;;;4987264;28;20050;-46
2022/09/05 06:28:58;;;;;;;;;;;18.70;62.70;;;;;;4990571;28;20046;-49
2022/09/05 06:31:36;;;;;;;4.50;3.35;;;18.90;61.70;;;;;;4997389;28;19953;-52
2022/09/05 06:34:12;;;;;;;2.92;2.35;;;18.90;62.30;;;;;;4991771;28;20074;-52
2022/09/05 06:37:21;;;;;;;3.15;2.65;;;18.90;61.90;;;;;;4994235;28;20439;-51
2022/09/05 06:40:17;;;;;;;4.40;3.25;;;19.00;62.50;;;;;;5001894;28;20089;-47
2022/09/05 06:43:30;;;;;;;3.83;3.00;;;19.10;63.20;;;;;;4993122;28;20069;-51
2022/09/05 06:46:21;;;;;;;6.05;3.35;;;19.20;63.50;;;;;;4996356;28;20046;-50
2022/09/05 06:49:27;;;;;;;3.13;2.80;;;19.20;62.60;;;;;;4993393;28;20089;-52
2022/09/05 06:52:21;;;;;;;4.53;2.63;;;19.30;63.00;;;;;;4995378;28;20052;-48
2022/09/05 06:55:14;;;;;;;3.25;2.67;;;19.40;63.10;;;;;;4998760;28;20047;-50
2022/09/05 06:57:52;;;;;;;3.60;2.72;;;19.50;63.00;;;;;;4983712;28;20038;-51
2022/09/05 07:00:36;;;;;;;3.30;3.00;;;19.50;62.40;;;;;;4993720;28;20042;-51
2022/09/05 07:03:49;;;;;;;5.20;2.90;;;19.60;62.80;;;;;;5002840;28;20048;-48
2022/09/05 07:06:36;;;;;;;;;;;19.80;62.60;;;;;;4990093;28;20052;-52
2022/09/05 07:09:56;;;;;;;3.33;2.30;;;19.90;61.40;;;;;;4997643;28;20085;-52
2022/09/05 07:12:28;;;;;;;5.10;2.45;;;20.00;61.40;;;;;;4991052;28;20045;-52
2022/09/05 07:15:18;;;;;;;3.63;3.13;;;20.00;61.20;;;;;;5008267;28;20449;-51
2022/09/05 07:17:58;;;;;;;5.28;3.00;;;20.10;61.40;;;;;;5003240;28;20053;-51
2022/09/05 07:20:54;;;;;;;4.32;2.97;;;20.20;61.00;;;;;;4991079;28;20046;-47
2022/09/05 07:23:56;;;;;;;6.88;3.30;;;20.30;61.00;;;;;;4992520;28;20060;-47
2022/09/05 07:26:44;;;;;;;6.90;2.95;;;20.40;60.50;;;;;;5005407;28;20050;-51
2022/09/05 07:29:44;;;;;;;5.03;2.80;;;20.50;60.00;;;;;;4997871;28;20070;-51
2022/09/05 07:32:30;;;;;;;5.95;2.97;;;20.60;60.00;;;;;;4991878;28;20038;-52
2022/09/05 07:35:00;;;;;;;5.80;2.47;;;20.70;59.30;;;;;;4991084;28;20042;-51
2022/09/05 07:37:43;;;;;;;7.68;2.53;;;20.90;59.40;;;;;;4985197;28;20466;-52
2022/09/05 07:40:22;;;;;;;5.15;2.47;;;20.90;59.40;;;;;;5000583;28;20077;-52
2022/09/05 07:42:59;;;;;;;4.85;2.30;;;21.00;58.90;;;;;;4991360;28;20053;-52
2022/09/05 07:45:46;;;;;;;7.03;2.47;;;21.10;58.50;;;;;;4990352;28;20045;-49
2022/09/05 07:48:30;;;;;;;4.43;2.40;;;21.30;58.90;;;;;;4982158;28;20048;-50
2022/09/05 07:51:06;;;;;;;6.07;3.20;;;21.40;58.10;;;;;;4996916;28;20396;-51
2022/09/05 07:54:28;;;;;;;11.82;2.72;;;21.50;57.80;;;;;;5006009;28;20054;-49
2022/09/05 07:57:31;;;;;;;3.17;2.65;;;21.60;57.50;;;;;;4962444;28;20133;-49
2022/09/05 08:00:20;;;;;;;4.38;2.28;;;21.80;57.40;;;;;;4998326;28;20053;-52
2022/09/05 08:03:00;;;;;;;6.63;3.47;;;21.90;57.00;;;;;;5014754;28;20053;-48
2022/09/05 08:05:39;;;;;;;;;;;22.00;57.00;;;;;;4999046;28;20093;-51
2022/09/05 08:08:15;;;;;;;6.50;2.45;;;22.20;56.90;;;;;;5004734;28;19932;-50
2022/09/05 08:11:09;;;;;;;4.20;2.47;;;22.20;56.30;;;;;;5006424;28;20517;-48
2022/09/05 08:14:06;;;;;;;3.70;2.63;;;22.30;56.20;;;;;;4997971;28;20078;-47
2022/09/05 08:16:53;;;;;;;5.05;2.70;;;22.50;55.70;;;;;;4993904;28;20140;-52
2022/09/05 08:20:01;;;;;;;7.30;2.88;;;22.60;55.70;;;;;;5003034;28;20035;-50
2022/09/05 08:23:11;;;;;;;2.80;1.80;;;22.80;54.80;;;;;;4970682;28;20069;-49
2022/09/05 08:25:52;;;;;;;4.18;2.72;;;22.90;54.80;;;;;;5000463;28;20041;-52
2022/09/05 08:28:52;;;;;;;6.60;2.95;;;23.00;54.30;;;;;;4998258;28;20077;-52
2022/09/05 08:31:32;;;;;;;5.30;2.47;;;23.10;54.60;;;;;;4991344;28;20042;-52
2022/09/05 08:34:10;;;;;;;4.65;2.53;;;23.20;53.70;;;;;;4994916;28;20038;-52
2022/09/05 08:36:44;;;;;;;6.65;3.05;;;23.30;53.20;;;;;;4985109;28;20069;-52
2022/09/05 08:39:15;;;;;;;5.80;2.50;;;23.50;53.00;;;;;;5000807;28;20438;-52
2022/09/05 08:42:07;;;;;;;8.48;3.03;;;23.50;53.00;;;;;;4998914;28;20046;-52
2022/09/05 08:44:42;;;;;;;6.70;2.30;;;23.60;52.40;;;;;;5001298;28;20042;-52
2022/09/05 08:47:47;;;;;;;9.68;2.53;;;23.70;52.10;;;;;;5002696;28;20136;-52
2022/09/05 08:50:47;;;;;;;6.65;2.13;;;23.80;51.20;;;;;;4991821;28;20081;-52
2022/09/05 08:53:28;;;;;;;5.03;1.85;;;24.00;51.00;;;;;;5002491;28;20029;-52
2022/09/05 08:56:30;;;;;;;5.43;1.92;;;24.10;50.50;;;;;;5006994;28;20061;-52
2022/09/05 08:59:03;;;;;;;;;;;24.20;50.60;;;;;;5001381;28;20042;-52
2022/09/05 09:02:01;;;;;;;7.57;2.00;;;24.40;51.10;;;;;;4996428;28;19937;-51
2022/09/05 09:05:13;;;;;;;4.32;1.80;;;24.50;49.90;;;;;;4988925;28;20053;-49
2022/09/05 09:07:59;;;;;;;5.43;1.70;;;24.60;49.80;;;;;;4995679;28;20050;-52
2022/09/05 09:10:33;;;;;;;5.35;1.70;;;24.70;49.60;;;;;;4987569;28;20314;-53
2022/09/05 09:13:06;;;;;;;6.30;2.05;;;24.80;49.60;;;;;;4994411;28;20093;-52
2022/09/05 09:16:12;;;;;;;7.15;2.33;;;24.90;48.80;;;;;;5012895;28;20112;-49
2022/09/05 09:19:03;;;;;;;5.40;1.77;;;25.00;48.20;;;;;;4988114;28;20603;-53
2022/09/05 09:21:45;;;;;;;5.03;2.05;;;25.10;48.00;;;;;;4995708;28;20045;-53
2022/09/05 09:24:54;;;;;;;6.88;1.80;;;25.20;48.00;;;;;;5001938;28;20052;-52
2022/09/05 09:28:12;;;;;;;4.00;1.67;;;25.30;47.70;;;;;;4932354;29;20472;-53
2022/09/05 09:31:35;;;;;;;2.95;1.50;;;25.40;47.30;;;;;;4999245;28;20050;-52
2022/09/05 09:34:18;;;;;;;3.13;1.42;;;25.60;47.00;;;;;;4997723;28;20644;-53
2022/09/05 09:37:14;;;;;;;2.53;1.45;;;25.60;46.30;;;;;;4996323;28;20038;-51
2022/09/05 09:40:04;;;;;;;6.40;1.95;;;25.70;46.40;;;;;;4993858;28;20089;-52
2022/09/05 09:42:49;;;;;;;6.75;1.40;;;25.80;46.10;;;;;;4989081;28;20070;-52
2022/09/05 09:45:32;;;;;;;4.05;1.52;;;25.90;44.90;;;;;;5002240;28;20041;-52
2022/09/05 09:47:59;;;;;;;2.35;1.33;;;26.00;44.50;;;;;;5004977;28;20172;-53
2022/09/05 09:50:47;;;;;;;2.42;1.58;;;26.00;44.40;;;;;;5012830;28;20042;-50
2022/09/05 09:53:51;;;;;;;3.50;1.67;;;26.10;44.30;;;;;;5002222;28;20506;-51
2022/09/05 09:56:44;;;;;;;3.13;1.58;;;26.20;43.90;;;;;;5000926;28;20050;-51
2022/09/05 09:59:17;;;;;;;2.03;1.05;;;26.30;43.10;;;;;;4992112;28;20039;-53
2022/09/05 10:02:21;;;;;;;1.20;0.95;;;26.40;43.20;;;;;;5000696;28;20542;-52
2022/09/05 10:05:36;;;;;;;1.58;0.85;;;26.50;42.10;;;;;;4974143;28;20057;-51
2022/09/05 10:08:50;;;;;;;3.60;0.80;;;26.60;41.50;;;;;;4997789;28;20073;-53
2022/09/05 10:11:50;;;;;;;0.98;0.98;;;26.70;41.30;;;;;;5000838;28;20073;-53
2022/09/05 10:14:54;;;;;;;0.95;0.90;;;26.80;41.90;;;;;;5000897;28;20042;-53
2022/09/05 10:17:32;;;;;;;0.73;0.73;;;26.90;40.20;;;;;;4986816;28;20120;-53
2022/09/05 10:20:13;;;;;;;0.70;0.70;;;26.90;40.50;;;;;;4985775;28;20088;-53
2022/09/05 10:23:13;;;;;;;1.50;0.65;;;27.00;39.60;;;;;;4995166;28;20042;-53
2022/09/05 10:25:49;;;;;;;1.52;0.75;;;27.10;39.50;;;;;;4991705;28;20854;-52
2022/09/05 10:28:36;;;;;;;1.30;0.75;;;27.10;39.30;;;;;;4998013;28;20038;-52
2022/09/05 10:31:17;;;;;;;2.38;1.13;;;27.20;38.80;;;;;;4983596;28;20105;-53
2022/09/05 10:34:18;;;;;;;1.48;0.90;;;27.30;38.80;;;;;;5000138;28;20487;-53
2022/09/05 10:37:11;;;;;;;1.75;0.93;;;27.50;38.70;;;;;;4994848;28;20052;-50
2022/09/05 10:39:47;;;;;;;1.55;0.95;;;27.60;38.90;;;;;;4998277;28;20042;-52
2022/09/05 10:42:33;;;;;;;2.13;0.95;;;27.60;38.10;;;;;;5000192;28;20162;-53
2022/09/05 10:45:36;;;;;;;1.92;1.25;;;27.70;38.00;;;;;;4992645;28;20053;-50
2022/09/05 10:48:21;;;;;;;4.18;1.17;;;27.80;38.10;;;;;;4960439;28;20431;-53
2022/09/05 10:51:05;;;;;;;1.35;0.88;;;27.90;38.10;;;;;;5000152;28;20046;-53
2022/09/05 10:53:50;;;;;;;1.40;1.02;;;28.00;38.00;;;;;;4991687;28;20135;-51
2022/09/05 10:56:25;;;;;;;1.48;1.00;;;28.00;37.30;;;;;;4996154;28;20054;-53
2022/09/05 10:59:00;;;;;;;6.93;1.40;;;28.10;37.70;;;;;;4989632;28;20042;-51
2022/09/05 11:02:06;;;;;;;1.33;0.85;;;28.20;37.70;;;;;;4989689;28;20129;-50
2022/09/05 11:05:23;;;;;;;2.50;1.00;;;28.20;36.70;;;;;;4988115;28;20066;-53
2022/09/05 11:07:58;;;;;;;1.63;0.80;;;28.30;37.20;;;;;;4992954;28;20046;-51
2022/09/05 11:10:48;;;;;;;2.47;0.82;;;28.40;37.10;;;;;;4989504;28;20057;-52
2022/09/05 11:13:36;;;;;;;2.05;1.20;;;28.40;36.50;;;;;;4994061;28;20050;-53
2022/09/05 11:16:22;;;;;;;1.00;0.80;;;28.50;36.10;;;;;;4999383;28;20046;-52
2022/09/05 11:19:25;;;;;;;2.40;1.10;;;28.60;36.40;;;;;;4991426;28;20129;-53
2022/09/05 11:22:02;;;;;;;2.17;0.98;;;28.60;35.60;;;;;;4981446;28;20496;-50
2022/09/05 11:24:58;;;;;;;4.43;1.10;;;28.70;35.40;;;;;;4994336;28;20042;-48
2022/09/05 11:27:35;;;;;;;1.38;0.95;;;28.70;35.40;;;;;;4982536;28;20041;-51
2022/09/05 11:30:12;;;;;;;1.13;1.02;;;28.70;35.20;;;;;;4994190;28;20038;-50
2022/09/05 11:33:08;;;;;;;1.95;0.80;;;28.90;35.50;;;;;;4991540;28;20531;-53
2022/09/05 11:36:11;;;;;;;2.22;0.90;;;29.00;35.20;;;;;;4994671;28;20042;-49
2022/09/05 11:39:12;;;;;;;1.58;0.70;;;29.10;34.80;;;;;;5008635;28;20108;-51
2022/09/05 11:42:16;;;;;;;1.98;0.90;;;29.20;34.90;;;;;;4996667;28;20038;-52
2022/09/05 11:45:06;;;;;;;0.75;0.65;;;29.20;34.90;;;;;;5001811;28;20712;-53
2022/09/05 11:48:03;;;;;;;0.90;0.68;;;29.20;34.60;;;;;;5002349;28;20841;-53
2022/09/05 11:50:58;;;;;;;0.77;0.77;;;29.30;34.40;;;;;;4991009;28;20047;-51
2022/09/05 11:53:48;;;;;;;1.55;0.60;;;29.40;34.30;;;;;;4994953;28;20041;-53
2022/09/05 11:56:23;;;;;;;;;;;29.40;34.40;;;;;;4998342;28;20550;-53
2022/09/05 11:59:11;;;;;;;0.68;0.68;;;29.50;35.90;;;;;;4989672;28;19953;-52
2022/09/05 12:01:55;;;;;;;1.95;0.80;;;29.60;33.50;;;;;;4996352;28;20564;-52
2022/09/05 12:04:49;;;;;;;1.35;0.82;;;29.60;33.20;;;;;;4977357;28;20106;-53
2022/09/05 12:07:54;;;;;;;2.45;0.65;;;29.70;33.20;;;;;;4990486;28;20425;-52
2022/09/05 12:10:45;;;;;;;0.80;0.80;;;29.80;33.20;;;;;;4993888;28;20092;-51
2022/09/05 12:13:31;;;;;;;0.80;0.80;;;29.80;32.90;;;;;;4999771;28;20046;-53
2022/09/05 12:16:00;;;;;;;3.13;0.93;;;29.90;32.70;;;;;;5008940;28;20061;-53
2022/09/05 12:19:00;;;;;;;0.63;0.60;;;29.90;32.70;;;;;;4990812;28;20381;-53
2022/09/05 12:22:17;;;;;;;0.70;0.70;;;30.00;32.40;;;;;;4991139;28;20050;-52
2022/09/05 12:25:12;;;;;;;1.30;1.20;;;30.00;32.70;;;;;;4991655;28;20069;-52
2022/09/05 12:28:06;;;;;;;0.95;0.85;;;30.10;32.40;;;;;;4995263;28;20129;-51
2022/09/05 12:31:15;;;;;;;1.20;0.73;;;30.20;32.20;;;;;;4996362;28;20046;-49
2022/09/05 12:34:17;;;;;;;1.73;0.88;;;30.30;32.30;;;;;;5000345;28;20093;-52
2022/09/05 12:37:11;;;;;;;1.52;0.50;;;30.50;32.00;;;;;;5010052;28;20112;-48
2022/09/05 12:40:12;;;;;;;0.80;0.80;;;30.70;31.70;;;;;;4992746;28;20125;-53
2022/09/05 12:43:02;;;;;;;1.52;0.70;;;30.80;31.40;;;;;;5004256;28;20046;-51
2022/09/05 12:46:06;;;;;;;0.73;0.73;;;31.10;31.40;;;;;;5004138;28;20517;-53
2022/09/05 12:49:00;;;;;;;0.70;0.70;;;31.30;31.30;;;;;;4994079;28;20434;-52
2022/09/05 12:51:40;;;;;;;1.23;0.60;;;31.50;31.20;;;;;;4993660;28;20062;-51
2022/09/05 12:54:32;;;;;;;1.35;0.65;;;31.60;30.60;;;;;;4992341;28;20439;-51
2022/09/05 12:57:11;;;;;;;3.10;1.00;;;31.80;30.40;;;;;;4998117;28;20484;-51
2022/09/05 13:00:10;;;;;;;0.70;0.60;;;32.00;30.30;;;;;;4987872;28;20522;-50
2022/09/05 13:03:05;;;;;;;1.65;0.77;;;32.10;30.70;;;;;;4990533;28;20615;-53
2022/09/05 13:05:58;;;;;;;1.50;1.00;;;32.30;30.70;;;;;;4994642;28;20129;-51
2022/09/05 13:08:45;;;;;;;0.70;0.70;;;32.40;30.40;;;;;;4989897;28;20046;-49
2022/09/05 13:11:30;;;;;;;0.55;0.55;;;32.50;30.00;;;;;;4996612;28;20529;-52
2022/09/05 13:14:27;;;;;;;1.95;0.68;;;32.60;30.10;;;;;;5005037;28;20091;-53
2022/09/05 13:17:17;;;;;;;3.33;0.90;;;32.70;29.40;;;;;;5002449;28;20819;-51
2022/09/05 13:19:50;;;;;;;;;;;32.80;30.00;;;;;;4979866;28;20051;-52
2022/09/05 13:22:21;;;;;;;1.17;0.93;;;32.90;31.30;;;;;;4979635;28;20390;-53
2022/09/05 13:25:07;;;;;;;3.42;0.77;;;33.00;30.00;;;;;;4997044;28;20077;-53
2022/09/05 13:27:42;;;;;;;0.90;0.55;;;33.00;29.70;;;;;;4990375;28;20100;-53
2022/09/05 13:30:11;;;;;;;1.35;0.98;;;33.10;29.60;;;;;;4995856;28;20054;-51
2022/09/05 13:33:03;;;;;;;1.17;0.60;;;33.10;29.20;;;;;;5007640;28;20140;-53
2022/09/05 13:36:04;;;;;;;1.00;0.70;;;33.10;29.30;;;;;;4977141;28;20695;-53
2022/09/05 13:39:11;;;;;;;0.75;0.75;;;33.10;29.90;;;;;;4999986;28;20525;-51
2022/09/05 13:41:47;;;;;;;1.77;0.90;;;33.10;29.50;;;;;;5000544;28;20061;-53
2022/09/05 13:44:24;;;;;;;1.63;0.70;;;33.00;29.40;;;;;;5000580;28;20556;-53
2022/09/05 13:47:12;;;;;;;0.88;0.73;;;33.00;29.60;;;;;;4996723;28;20069;-53
2022/09/05 13:50:25;;;;;;;0.98;0.50;;;32.90;30.50;;;;;;4971751;28;20541;-53
2022/09/05 13:53:10;;;;;;;1.65;0.75;;;33.00;29.70;;;;;;4998655;28;20450;-53
2022/09/05 13:55:47;;;;;;;1.17;0.82;;;33.10;29.90;;;;;;4994510;28;20038;-53
2022/09/05 13:58:42;;;;;;;0.85;0.68;;;33.20;29.70;;;;;;4991999;28;20046;-53
2022/09/05 14:01:32;;;;;;;0.70;0.70;;;33.60;30.10;;;;;;4979226;28;20038;-52
2022/09/05 14:04:11;;;;;;;1.67;0.65;;;33.90;28.80;;;;;;4991892;28;20121;-49
2022/09/05 14:06:50;;;;;;;1.05;0.80;;;34.10;29.20;;;;;;5002996;28;20040;-50
2022/09/05 14:09:40;;;;;;;0.70;0.60;;;34.30;28.90;;;;;;5005398;28;20591;-53
2022/09/05 14:12:31;;;;;;;3.42;0.77;;;34.40;28.70;;;;;;5000912;28;20046;-49
2022/09/05 14:15:04;;;;;;;1.65;0.85;;;34.40;28.50;;;;;;5003070;28;20046;-53
2022/09/05 14:18:15;;;;;;;2.72;0.73;;;34.30;28.10;;;;;;4999301;28;20038;-51
2022/09/05 14:21:19;;;;;;;1.75;0.63;;;34.30;28.60;;;;;;4980118;28;20038;-53
2022/09/05 14:23:57;;;;;;;1.00;0.68;;;34.30;28.50;;;;;;4994077;28;20606;-50
2022/09/05 14:26:32;;;;;;;3.53;0.80;;;34.20;28.70;;;;;;4992856;28;20049;-52
2022/09/05 14:29:20;;;;;;;1.75;0.93;;;34.20;28.80;;;;;;4989749;28;20444;-53
2022/09/05 14:32:14;;;;;;;1.08;0.90;;;34.10;29.00;;;;;;5002125;28;20076;-51
2022/09/05 14:35:10;;;;;;;2.60;1.08;;;34.00;29.10;;;;;;4987585;28;20070;-50
2022/09/05 14:38:07;;;;;;;1.63;0.93;;;34.00;29.20;;;;;;5001769;28;20034;-53
2022/09/05 14:41:21;;;;;;;1.27;0.80;;;33.90;29.10;;;;;;4997311;28;20041;-53
2022/09/05 14:44:06;;;;;;;3.10;1.10;;;33.80;29.90;;;;;;4996240;28;20117;-52
2022/09/05 14:47:05;;;;;;;1.00;0.93;;;33.80;28.70;;;;;;4996990;28;20042;-53
2022/09/05 14:49:54;;;;;;;2.38;1.27;;;33.80;28.50;;;;;;4994000;28;20038;-53
2022/09/05 14:52:27;;;;;;;1.75;0.88;;;33.80;28.80;;;;;;4998979;28;20042;-53
2022/09/05 14:55:01;;;;;;;0.80;0.80;;;33.80;28.50;;;;;;4978044;28;20605;-52